sensor_id;sensor_type;location;lat;lon;timestamp;P1;durP1;ratioP1;P2;durP2;ratioP2
8260;SDS011;64115;50.170;8.242;2022-11-06T00:01:31;24.20;;;14.27;;
8260;SDS011;64115;50.170;8.242;2022-11-06T00:03:58;31.53;;;15.13;;
8260;SDS011;64115;50.170;8.242;2022-11-06T00:06:26;28.60;;;14.57;;
8260;SDS011;64115;50.170;8.242;2022-11-06T00:09:11;21.53;;;13.17;;
8260;SDS011;64115;50.170;8.242;2022-11-06T00:11:39;21.63;;;13.43;;
8260;SDS011;64115;50.170;8.242;2022-11-06T00:14:06;25.43;;;14.50;;
8260;SDS011;64115;50.170;8.242;2022-11-06T00:16:35;22.40;;;13.97;;
8260;SDS011;64115;50.170;8.242;2022-11-06T00:19:02;27.57;;;14.93;;
8260;SDS011;64115;50.170;8.242;2022-11-06T00:21:31;22.80;;;14.73;;
8260;SDS011;64115;50.170;8.242;2022-11-06T00:23:59;22.43;;;14.70;;
8260;SDS011;64115;50.170;8.242;2022-11-06T00:26:27;31.60;;;15.83;;
8260;SDS011;64115;50.170;8.242;2022-11-06T00:28:55;23.77;;;13.90;;
8260;SDS011;64115;50.170;8.242;2022-11-06T00:31:24;22.57;;;13.93;;
8260;SDS011;64115;50.170;8.242;2022-11-06T00:33:52;26.03;;;14.33;;
8260;SDS011;64115;50.170;8.242;2022-11-06T00:36:20;23.00;;;14.17;;
8260;SDS011;64115;50.170;8.242;2022-11-06T00:38:51;21.50;;;14.23;;
8260;SDS011;64115;50.170;8.242;2022-11-06T00:41:19;24.60;;;14.43;;
8260;SDS011;64115;50.170;8.242;2022-11-06T00:43:46;24.03;;;14.00;;
8260;SDS011;64115;50.170;8.242;2022-11-06T00:46:14;29.87;;;15.80;;
8260;SDS011;64115;50.170;8.242;2022-11-06T00:48:41;24.63;;;15.57;;
8260;SDS011;64115;50.170;8.242;2022-11-06T00:51:10;25.50;;;15.87;;
8260;SDS011;64115;50.170;8.242;2022-11-06T00:53:39;27.10;;;15.77;;
8260;SDS011;64115;50.170;8.242;2022-11-06T00:56:09;26.37;;;16.60;;
8260;SDS011;64115;50.170;8.242;2022-11-06T00:58:37;21.90;;;15.77;;
8260;SDS011;64115;50.170;8.242;2022-11-06T01:01:05;28.03;;;16.20;;
8260;SDS011;64115;50.170;8.242;2022-11-06T01:03:33;23.47;;;14.60;;
8260;SDS011;64115;50.170;8.242;2022-11-06T01:06:06;24.23;;;14.27;;
8260;SDS011;64115;50.170;8.242;2022-11-06T01:08:34;22.00;;;14.77;;
8260;SDS011;64115;50.170;8.242;2022-11-06T01:11:09;24.23;;;15.63;;
8260;SDS011;64115;50.170;8.242;2022-11-06T01:13:38;23.50;;;14.93;;
8260;SDS011;64115;50.170;8.242;2022-11-06T01:16:07;25.00;;;15.10;;
8260;SDS011;64115;50.170;8.242;2022-11-06T01:18:37;20.37;;;14.23;;
8260;SDS011;64115;50.170;8.242;2022-11-06T01:21:05;17.77;;;13.70;;
8260;SDS011;64115;50.170;8.242;2022-11-06T01:23:34;19.90;;;14.07;;
8260;SDS011;64115;50.170;8.242;2022-11-06T01:26:02;17.97;;;13.27;;
8260;SDS011;64115;50.170;8.242;2022-11-06T01:28:31;22.90;;;14.63;;
8260;SDS011;64115;50.170;8.242;2022-11-06T01:31:00;24.40;;;14.57;;
8260;SDS011;64115;50.170;8.242;2022-11-06T01:33:28;23.27;;;14.67;;
8260;SDS011;64115;50.170;8.242;2022-11-06T01:35:55;21.67;;;14.50;;
8260;SDS011;64115;50.170;8.242;2022-11-06T01:38:22;21.47;;;14.27;;
8260;SDS011;64115;50.170;8.242;2022-11-06T01:40:49;18.87;;;13.77;;
8260;SDS011;64115;50.170;8.242;2022-11-06T01:43:17;22.77;;;13.53;;
8260;SDS011;64115;50.170;8.242;2022-11-06T01:45:46;21.93;;;13.43;;
8260;SDS011;64115;50.170;8.242;2022-11-06T01:48:14;17.80;;;12.53;;
8260;SDS011;64115;50.170;8.242;2022-11-06T01:50:44;16.63;;;12.53;;
8260;SDS011;64115;50.170;8.242;2022-11-06T01:53:15;21.43;;;13.63;;
8260;SDS011;64115;50.170;8.242;2022-11-06T01:55:44;21.23;;;14.13;;
8260;SDS011;64115;50.170;8.242;2022-11-06T01:58:14;20.30;;;13.43;;
8260;SDS011;64115;50.170;8.242;2022-11-06T02:00:43;17.33;;;12.97;;
8260;SDS011;64115;50.170;8.242;2022-11-06T02:03:12;19.77;;;12.53;;
8260;SDS011;64115;50.170;8.242;2022-11-06T02:05:40;18.47;;;13.03;;
8260;SDS011;64115;50.170;8.242;2022-11-06T02:08:09;16.90;;;12.00;;
8260;SDS011;64115;50.170;8.242;2022-11-06T02:10:39;20.47;;;12.60;;
8260;SDS011;64115;50.170;8.242;2022-11-06T02:13:11;17.20;;;11.63;;
8260;SDS011;64115;50.170;8.242;2022-11-06T02:15:45;22.20;;;12.60;;
8260;SDS011;64115;50.170;8.242;2022-11-06T02:18:19;19.53;;;12.43;;
8260;SDS011;64115;50.170;8.242;2022-11-06T02:21:00;19.93;;;12.50;;
8260;SDS011;64115;50.170;8.242;2022-11-06T02:27:01;18.77;;;12.83;;
8260;SDS011;64115;50.170;8.242;2022-11-06T02:29:35;17.80;;;12.67;;
8260;SDS011;64115;50.170;8.242;2022-11-06T02:32:10;15.90;;;11.80;;
8260;SDS011;64115;50.170;8.242;2022-11-06T02:34:41;16.93;;;12.43;;
8260;SDS011;64115;50.170;8.242;2022-11-06T02:37:11;17.17;;;12.20;;
8260;SDS011;64115;50.170;8.242;2022-11-06T02:39:42;17.47;;;12.20;;
8260;SDS011;64115;50.170;8.242;2022-11-06T02:42:14;18.33;;;12.43;;
8260;SDS011;64115;50.170;8.242;2022-11-06T02:44:42;18.03;;;12.83;;
8260;SDS011;64115;50.170;8.242;2022-11-06T02:47:12;16.97;;;12.73;;
8260;SDS011;64115;50.170;8.242;2022-11-06T02:49:41;18.63;;;13.67;;
8260;SDS011;64115;50.170;8.242;2022-11-06T02:52:12;20.37;;;12.90;;
8260;SDS011;64115;50.170;8.242;2022-11-06T02:54:45;17.27;;;12.30;;
8260;SDS011;64115;50.170;8.242;2022-11-06T02:57:16;18.73;;;12.53;;
8260;SDS011;64115;50.170;8.242;2022-11-06T02:59:47;19.03;;;12.63;;
8260;SDS011;64115;50.170;8.242;2022-11-06T03:02:18;16.70;;;11.33;;
8260;SDS011;64115;50.170;8.242;2022-11-06T03:04:50;19.03;;;12.03;;
8260;SDS011;64115;50.170;8.242;2022-11-06T03:07:22;16.73;;;11.23;;
8260;SDS011;64115;50.170;8.242;2022-11-06T03:09:53;20.27;;;11.20;;
8260;SDS011;64115;50.170;8.242;2022-11-06T03:12:22;16.93;;;11.17;;
8260;SDS011;64115;50.170;8.242;2022-11-06T03:14:54;14.30;;;10.40;;
8260;SDS011;64115;50.170;8.242;2022-11-06T03:17:28;14.80;;;10.27;;
8260;SDS011;64115;50.170;8.242;2022-11-06T03:20:03;13.63;;;8.63;;
8260;SDS011;64115;50.170;8.242;2022-11-06T03:22:39;12.17;;;9.37;;
8260;SDS011;64115;50.170;8.242;2022-11-06T03:25:12;15.23;;;9.13;;
8260;SDS011;64115;50.170;8.242;2022-11-06T03:27:48;13.60;;;9.20;;
8260;SDS011;64115;50.170;8.242;2022-11-06T03:30:17;17.83;;;10.53;;
8260;SDS011;64115;50.170;8.242;2022-11-06T03:32:45;14.47;;;9.67;;
8260;SDS011;64115;50.170;8.242;2022-11-06T03:35:18;14.53;;;9.83;;
8260;SDS011;64115;50.170;8.242;2022-11-06T03:37:51;14.50;;;10.07;;
8260;SDS011;64115;50.170;8.242;2022-11-06T03:40:22;18.53;;;9.40;;
8260;SDS011;64115;50.170;8.242;2022-11-06T03:42:56;15.93;;;9.67;;
8260;SDS011;64115;50.170;8.242;2022-11-06T03:45:27;15.47;;;10.10;;
8260;SDS011;64115;50.170;8.242;2022-11-06T03:47:58;21.23;;;10.17;;
8260;SDS011;64115;50.170;8.242;2022-11-06T03:50:30;16.33;;;9.77;;
8260;SDS011;64115;50.170;8.242;2022-11-06T03:53:04;18.53;;;10.10;;
8260;SDS011;64115;50.170;8.242;2022-11-06T03:55:37;14.90;;;9.97;;
8260;SDS011;64115;50.170;8.242;2022-11-06T03:58:09;16.87;;;9.90;;
8260;SDS011;64115;50.170;8.242;2022-11-06T04:00:41;18.33;;;10.17;;
8260;SDS011;64115;50.170;8.242;2022-11-06T04:03:11;21.77;;;10.77;;
8260;SDS011;64115;50.170;8.242;2022-11-06T04:05:44;14.87;;;9.30;;
8260;SDS011;64115;50.170;8.242;2022-11-06T04:08:17;13.90;;;8.97;;
8260;SDS011;64115;50.170;8.242;2022-11-06T04:11:05;14.67;;;9.43;;
8260;SDS011;64115;50.170;8.242;2022-11-06T04:13:54;18.77;;;9.70;;
8260;SDS011;64115;50.170;8.242;2022-11-06T04:16:26;13.43;;;9.53;;
8260;SDS011;64115;50.170;8.242;2022-11-06T04:18:57;14.90;;;9.40;;
8260;SDS011;64115;50.170;8.242;2022-11-06T04:21:25;16.70;;;10.07;;
8260;SDS011;64115;50.170;8.242;2022-11-06T04:24:03;17.40;;;10.30;;
8260;SDS011;64115;50.170;8.242;2022-11-06T04:26:55;18.13;;;9.17;;
8260;SDS011;64115;50.170;8.242;2022-11-06T04:29:33;14.17;;;9.43;;
8260;SDS011;64115;50.170;8.242;2022-11-06T04:32:14;14.73;;;10.07;;
8260;SDS011;64115;50.170;8.242;2022-11-06T04:34:49;13.17;;;9.37;;
8260;SDS011;64115;50.170;8.242;2022-11-06T04:37:24;15.63;;;10.87;;
8260;SDS011;64115;50.170;8.242;2022-11-06T04:39:59;19.00;;;10.40;;
8260;SDS011;64115;50.170;8.242;2022-11-06T04:42:33;17.00;;;10.70;;
8260;SDS011;64115;50.170;8.242;2022-11-06T04:45:09;19.07;;;10.90;;
8260;SDS011;64115;50.170;8.242;2022-11-06T04:47:38;17.17;;;10.53;;
8260;SDS011;64115;50.170;8.242;2022-11-06T04:50:07;19.73;;;11.30;;
8260;SDS011;64115;50.170;8.242;2022-11-06T04:52:36;21.43;;;12.03;;
8260;SDS011;64115;50.170;8.242;2022-11-06T04:55:05;17.03;;;11.60;;
8260;SDS011;64115;50.170;8.242;2022-11-06T04:57:33;20.90;;;10.30;;
8260;SDS011;64115;50.170;8.242;2022-11-06T04:59:59;16.50;;;10.27;;
8260;SDS011;64115;50.170;8.242;2022-11-06T05:02:28;15.23;;;10.57;;
8260;SDS011;64115;50.170;8.242;2022-11-06T05:04:55;13.53;;;10.17;;
8260;SDS011;64115;50.170;8.242;2022-11-06T05:07:21;16.23;;;10.37;;
8260;SDS011;64115;50.170;8.242;2022-11-06T05:09:48;17.07;;;10.57;;
8260;SDS011;64115;50.170;8.242;2022-11-06T05:12:15;16.17;;;9.70;;
8260;SDS011;64115;50.170;8.242;2022-11-06T05:14:42;16.87;;;9.70;;
8260;SDS011;64115;50.170;8.242;2022-11-06T05:17:09;13.23;;;9.83;;
8260;SDS011;64115;50.170;8.242;2022-11-06T05:19:37;15.10;;;10.93;;
8260;SDS011;64115;50.170;8.242;2022-11-06T05:22:04;14.93;;;9.70;;
8260;SDS011;64115;50.170;8.242;2022-11-06T05:24:49;15.50;;;9.60;;
8260;SDS011;64115;50.170;8.242;2022-11-06T05:27:16;16.03;;;10.27;;
8260;SDS011;64115;50.170;8.242;2022-11-06T05:29:42;15.73;;;10.90;;
8260;SDS011;64115;50.170;8.242;2022-11-06T05:32:09;16.33;;;9.87;;
8260;SDS011;64115;50.170;8.242;2022-11-06T05:34:37;13.77;;;9.90;;
8260;SDS011;64115;50.170;8.242;2022-11-06T05:37:06;14.53;;;9.90;;
8260;SDS011;64115;50.170;8.242;2022-11-06T05:39:33;16.00;;;10.27;;
8260;SDS011;64115;50.170;8.242;2022-11-06T05:42:00;17.07;;;9.77;;
8260;SDS011;64115;50.170;8.242;2022-11-06T05:44:26;15.50;;;10.30;;
8260;SDS011;64115;50.170;8.242;2022-11-06T05:46:53;13.17;;;10.13;;
8260;SDS011;64115;50.170;8.242;2022-11-06T05:49:20;14.90;;;10.40;;
8260;SDS011;64115;50.170;8.242;2022-11-06T05:51:48;18.20;;;10.27;;
8260;SDS011;64115;50.170;8.242;2022-11-06T05:54:15;18.00;;;10.87;;
8260;SDS011;64115;50.170;8.242;2022-11-06T05:56:42;18.20;;;10.87;;
8260;SDS011;64115;50.170;8.242;2022-11-06T05:59:08;16.97;;;10.37;;
8260;SDS011;64115;50.170;8.242;2022-11-06T06:01:35;14.00;;;9.50;;
8260;SDS011;64115;50.170;8.242;2022-11-06T06:04:02;14.43;;;9.43;;
8260;SDS011;64115;50.170;8.242;2022-11-06T06:06:29;10.23;;;8.87;;
8260;SDS011;64115;50.170;8.242;2022-11-06T06:08:57;15.77;;;8.27;;
8260;SDS011;64115;50.170;8.242;2022-11-06T06:11:24;13.30;;;8.73;;
8260;SDS011;64115;50.170;8.242;2022-11-06T06:13:51;16.07;;;9.30;;
8260;SDS011;64115;50.170;8.242;2022-11-06T06:16:18;18.13;;;9.20;;
8260;SDS011;64115;50.170;8.242;2022-11-06T06:18:47;16.33;;;9.63;;
8260;SDS011;64115;50.170;8.242;2022-11-06T06:21:14;15.37;;;8.47;;
8260;SDS011;64115;50.170;8.242;2022-11-06T06:23:40;16.47;;;8.97;;
8260;SDS011;64115;50.170;8.242;2022-11-06T06:26:09;14.33;;;8.40;;
8260;SDS011;64115;50.170;8.242;2022-11-06T06:28:35;11.93;;;7.90;;
8260;SDS011;64115;50.170;8.242;2022-11-06T06:31:03;11.60;;;7.17;;
8260;SDS011;64115;50.170;8.242;2022-11-06T06:33:30;12.40;;;7.17;;
8260;SDS011;64115;50.170;8.242;2022-11-06T06:35:57;9.73;;;6.50;;
8260;SDS011;64115;50.170;8.242;2022-11-06T06:38:27;10.07;;;6.70;;
8260;SDS011;64115;50.170;8.242;2022-11-06T06:40:54;10.63;;;6.67;;
8260;SDS011;64115;50.170;8.242;2022-11-06T06:43:26;9.90;;;6.47;;
8260;SDS011;64115;50.170;8.242;2022-11-06T06:45:55;11.47;;;6.13;;
8260;SDS011;64115;50.170;8.242;2022-11-06T06:48:23;8.60;;;6.00;;
8260;SDS011;64115;50.170;8.242;2022-11-06T06:50:49;7.87;;;5.50;;
8260;SDS011;64115;50.170;8.242;2022-11-06T06:53:16;8.30;;;5.50;;
8260;SDS011;64115;50.170;8.242;2022-11-06T06:55:43;7.83;;;5.70;;
8260;SDS011;64115;50.170;8.242;2022-11-06T06:58:10;8.93;;;5.40;;
8260;SDS011;64115;50.170;8.242;2022-11-06T07:00:38;9.37;;;5.20;;
8260;SDS011;64115;50.170;8.242;2022-11-06T07:03:05;8.67;;;5.10;;
8260;SDS011;64115;50.170;8.242;2022-11-06T07:05:31;7.37;;;5.10;;
8260;SDS011;64115;50.170;8.242;2022-11-06T07:07:58;7.63;;;4.80;;
8260;SDS011;64115;50.170;8.242;2022-11-06T07:10:25;6.53;;;4.57;;
8260;SDS011;64115;50.170;8.242;2022-11-06T07:12:52;5.63;;;4.37;;
8260;SDS011;64115;50.170;8.242;2022-11-06T07:15:19;6.47;;;4.77;;
8260;SDS011;64115;50.170;8.242;2022-11-06T07:17:47;7.20;;;4.13;;
8260;SDS011;64115;50.170;8.242;2022-11-06T07:20:14;6.90;;;4.67;;
8260;SDS011;64115;50.170;8.242;2022-11-06T07:22:41;7.97;;;4.80;;
8260;SDS011;64115;50.170;8.242;2022-11-06T07:25:08;8.83;;;5.37;;
8260;SDS011;64115;50.170;8.242;2022-11-06T07:27:34;6.20;;;5.60;;
8260;SDS011;64115;50.170;8.242;2022-11-06T07:30:01;7.23;;;5.07;;
8260;SDS011;64115;50.170;8.242;2022-11-06T07:32:28;7.40;;;4.57;;
8260;SDS011;64115;50.170;8.242;2022-11-06T07:34:57;5.47;;;4.97;;
8260;SDS011;64115;50.170;8.242;2022-11-06T07:37:24;6.47;;;5.30;;
8260;SDS011;64115;50.170;8.242;2022-11-06T07:39:51;5.43;;;4.87;;
8260;SDS011;64115;50.170;8.242;2022-11-06T07:42:17;6.50;;;5.20;;
8260;SDS011;64115;50.170;8.242;2022-11-06T07:44:44;5.90;;;5.30;;
8260;SDS011;64115;50.170;8.242;2022-11-06T07:47:11;6.97;;;5.27;;
8260;SDS011;64115;50.170;8.242;2022-11-06T07:49:38;9.13;;;5.87;;
8260;SDS011;64115;50.170;8.242;2022-11-06T07:52:06;6.97;;;5.20;;
8260;SDS011;64115;50.170;8.242;2022-11-06T07:54:33;6.97;;;6.20;;
8260;SDS011;64115;50.170;8.242;2022-11-06T07:57:00;8.87;;;6.07;;
8260;SDS011;64115;50.170;8.242;2022-11-06T07:59:26;8.37;;;6.73;;
8260;SDS011;64115;50.170;8.242;2022-11-06T08:01:53;7.27;;;5.93;;
8260;SDS011;64115;50.170;8.242;2022-11-06T08:04:20;7.70;;;7.07;;
8260;SDS011;64115;50.170;8.242;2022-11-06T08:06:47;6.30;;;5.70;;
8260;SDS011;64115;50.170;8.242;2022-11-06T08:09:15;6.13;;;5.33;;
8260;SDS011;64115;50.170;8.242;2022-11-06T08:11:42;5.70;;;5.13;;
8260;SDS011;64115;50.170;8.242;2022-11-06T08:14:09;6.83;;;5.40;;
8260;SDS011;64115;50.170;8.242;2022-11-06T08:16:36;6.40;;;4.97;;
8260;SDS011;64115;50.170;8.242;2022-11-06T08:19:03;5.90;;;4.33;;
8260;SDS011;64115;50.170;8.242;2022-11-06T08:21:30;7.60;;;4.50;;
8260;SDS011;64115;50.170;8.242;2022-11-06T08:23:56;5.13;;;4.33;;
8260;SDS011;64115;50.170;8.242;2022-11-06T08:26:25;3.93;;;3.63;;
8260;SDS011;64115;50.170;8.242;2022-11-06T08:28:52;6.83;;;4.73;;
8260;SDS011;64115;50.170;8.242;2022-11-06T08:31:19;4.80;;;4.40;;
8260;SDS011;64115;50.170;8.242;2022-11-06T08:33:46;4.87;;;4.03;;
8260;SDS011;64115;50.170;8.242;2022-11-06T08:36:13;4.23;;;3.90;;
8260;SDS011;64115;50.170;8.242;2022-11-06T08:38:40;4.60;;;3.93;;
8260;SDS011;64115;50.170;8.242;2022-11-06T08:41:08;5.83;;;3.80;;
8260;SDS011;64115;50.170;8.242;2022-11-06T08:43:37;4.47;;;4.10;;
8260;SDS011;64115;50.170;8.242;2022-11-06T08:46:05;4.87;;;3.93;;
8260;SDS011;64115;50.170;8.242;2022-11-06T08:48:34;4.60;;;4.00;;
8260;SDS011;64115;50.170;8.242;2022-11-06T08:51:01;5.93;;;4.30;;
8260;SDS011;64115;50.170;8.242;2022-11-06T08:53:29;4.73;;;4.33;;
8260;SDS011;64115;50.170;8.242;2022-11-06T08:55:56;6.33;;;4.53;;
8260;SDS011;64115;50.170;8.242;2022-11-06T08:58:22;7.30;;;4.97;;
8260;SDS011;64115;50.170;8.242;2022-11-06T09:00:51;5.00;;;4.60;;
8260;SDS011;64115;50.170;8.242;2022-11-06T09:03:18;7.03;;;5.63;;
8260;SDS011;64115;50.170;8.242;2022-11-06T09:05:45;8.87;;;6.10;;
8260;SDS011;64115;50.170;8.242;2022-11-06T09:08:12;7.00;;;6.03;;
8260;SDS011;64115;50.170;8.242;2022-11-06T09:10:40;7.80;;;6.40;;
8260;SDS011;64115;50.170;8.242;2022-11-06T09:13:07;9.27;;;6.30;;
8260;SDS011;64115;50.170;8.242;2022-11-06T09:15:35;11.17;;;6.90;;
8260;SDS011;64115;50.170;8.242;2022-11-06T09:18:03;8.07;;;7.20;;
8260;SDS011;64115;50.170;8.242;2022-11-06T09:20:30;9.80;;;7.83;;
8260;SDS011;64115;50.170;8.242;2022-11-06T09:22:58;10.07;;;8.00;;
8260;SDS011;64115;50.170;8.242;2022-11-06T09:25:26;14.70;;;9.17;;
8260;SDS011;64115;50.170;8.242;2022-11-06T09:27:53;15.20;;;9.23;;
8260;SDS011;64115;50.170;8.242;2022-11-06T09:30:21;16.43;;;9.53;;
8260;SDS011;64115;50.170;8.242;2022-11-06T09:32:50;13.17;;;10.00;;
8260;SDS011;64115;50.170;8.242;2022-11-06T09:35:20;15.33;;;10.57;;
8260;SDS011;64115;50.170;8.242;2022-11-06T09:37:48;20.73;;;11.97;;
8260;SDS011;64115;50.170;8.242;2022-11-06T09:40:17;17.63;;;11.97;;
8260;SDS011;64115;50.170;8.242;2022-11-06T09:42:49;23.23;;;13.20;;
8260;SDS011;64115;50.170;8.242;2022-11-06T09:45:25;44.20;;;12.80;;
8260;SDS011;64115;50.170;8.242;2022-11-06T09:47:56;101.87;;;16.10;;
8260;SDS011;64115;50.170;8.242;2022-11-06T09:50:30;67.30;;;14.40;;
8260;SDS011;64115;50.170;8.242;2022-11-06T09:53:03;20.40;;;13.77;;
8260;SDS011;64115;50.170;8.242;2022-11-06T09:55:36;42.73;;;15.13;;
8260;SDS011;64115;50.170;8.242;2022-11-06T09:58:08;24.40;;;14.00;;
8260;SDS011;64115;50.170;8.242;2022-11-06T10:11:21;22.47;;;14.90;;
8260;SDS011;64115;50.170;8.242;2022-11-06T10:14:00;20.87;;;14.77;;
8260;SDS011;64115;50.170;8.242;2022-11-06T10:16:38;17.77;;;12.90;;
8260;SDS011;64115;50.170;8.242;2022-11-06T10:19:10;22.27;;;15.97;;
8260;SDS011;64115;50.170;8.242;2022-11-06T10:21:50;17.57;;;13.90;;
8260;SDS011;64115;50.170;8.242;2022-11-06T10:24:30;21.93;;;15.57;;
8260;SDS011;64115;50.170;8.242;2022-11-06T10:27:08;20.37;;;15.83;;
8260;SDS011;64115;50.170;8.242;2022-11-06T10:29:50;20.20;;;14.37;;
8260;SDS011;64115;50.170;8.242;2022-11-06T10:32:33;17.00;;;13.60;;
8260;SDS011;64115;50.170;8.242;2022-11-06T10:35:13;15.23;;;12.87;;
8260;SDS011;64115;50.170;8.242;2022-11-06T10:37:45;16.40;;;13.00;;
8260;SDS011;64115;50.170;8.242;2022-11-06T10:40:16;14.30;;;11.93;;
8260;SDS011;64115;50.170;8.242;2022-11-06T10:42:51;16.13;;;12.73;;
8260;SDS011;64115;50.170;8.242;2022-11-06T10:45:26;14.40;;;11.63;;
8260;SDS011;64115;50.170;8.242;2022-11-06T10:47:56;13.13;;;11.47;;
8260;SDS011;64115;50.170;8.242;2022-11-06T10:50:33;15.00;;;11.77;;
8260;SDS011;64115;50.170;8.242;2022-11-06T10:53:07;13.27;;;11.13;;
8260;SDS011;64115;50.170;8.242;2022-11-06T10:58:51;13.87;;;10.83;;
8260;SDS011;64115;50.170;8.242;2022-11-06T11:01:18;13.10;;;10.13;;
8260;SDS011;64115;50.170;8.242;2022-11-06T11:03:45;14.93;;;10.93;;
8260;SDS011;64115;50.170;8.242;2022-11-06T11:09:47;9.07;;;8.10;;
8260;SDS011;64115;50.170;8.242;2022-11-06T11:12:18;9.57;;;7.03;;
8260;SDS011;64115;50.170;8.242;2022-11-06T11:17:42;11.63;;;8.90;;
8260;SDS011;64115;50.170;8.242;2022-11-06T11:20:34;8.87;;;7.20;;
8260;SDS011;64115;50.170;8.242;2022-11-06T11:23:06;7.73;;;7.03;;
8260;SDS011;64115;50.170;8.242;2022-11-06T11:25:39;10.20;;;7.67;;
8260;SDS011;64115;50.170;8.242;2022-11-06T11:28:10;7.90;;;7.00;;
8260;SDS011;64115;50.170;8.242;2022-11-06T11:30:49;9.97;;;7.57;;
8260;SDS011;64115;50.170;8.242;2022-11-06T11:33:19;11.17;;;8.40;;
8260;SDS011;64115;50.170;8.242;2022-11-06T11:35:49;10.20;;;8.30;;
8260;SDS011;64115;50.170;8.242;2022-11-06T11:38:16;11.63;;;9.07;;
8260;SDS011;64115;50.170;8.242;2022-11-06T11:40:46;9.83;;;8.20;;
8260;SDS011;64115;50.170;8.242;2022-11-06T11:43:20;10.13;;;7.17;;
8260;SDS011;64115;50.170;8.242;2022-11-06T11:46:13;7.03;;;6.07;;
8260;SDS011;64115;50.170;8.242;2022-11-06T11:48:46;8.47;;;6.10;;
8260;SDS011;64115;50.170;8.242;2022-11-06T11:54:05;8.60;;;6.13;;
8260;SDS011;64115;50.170;8.242;2022-11-06T11:56:45;6.77;;;5.53;;
8260;SDS011;64115;50.170;8.242;2022-11-06T11:59:15;10.37;;;6.00;;
8260;SDS011;64115;50.170;8.242;2022-11-06T12:01:44;6.17;;;5.63;;
8260;SDS011;64115;50.170;8.242;2022-11-06T12:04:26;7.77;;;5.70;;
8260;SDS011;64115;50.170;8.242;2022-11-06T12:06:57;6.17;;;5.43;;
8260;SDS011;64115;50.170;8.242;2022-11-06T12:09:26;9.33;;;6.07;;
8260;SDS011;64115;50.170;8.242;2022-11-06T12:11:55;6.63;;;5.33;;
8260;SDS011;64115;50.170;8.242;2022-11-06T12:14:29;7.13;;;5.67;;
8260;SDS011;64115;50.170;8.242;2022-11-06T12:19:49;7.13;;;6.10;;
8260;SDS011;64115;50.170;8.242;2022-11-06T12:22:21;7.17;;;6.07;;
8260;SDS011;64115;50.170;8.242;2022-11-06T12:24:52;8.27;;;5.83;;
8260;SDS011;64115;50.170;8.242;2022-11-06T12:27:22;6.50;;;5.90;;
8260;SDS011;64115;50.170;8.242;2022-11-06T12:29:56;6.80;;;6.20;;
8260;SDS011;64115;50.170;8.242;2022-11-06T12:32:32;7.03;;;6.40;;
8260;SDS011;64115;50.170;8.242;2022-11-06T12:35:09;8.03;;;6.43;;
8260;SDS011;64115;50.170;8.242;2022-11-06T12:37:43;8.83;;;6.20;;
8260;SDS011;64115;50.170;8.242;2022-11-06T12:40:18;7.03;;;6.40;;
8260;SDS011;64115;50.170;8.242;2022-11-06T12:42:52;9.00;;;6.93;;
8260;SDS011;64115;50.170;8.242;2022-11-06T12:45:28;7.60;;;6.90;;
8260;SDS011;64115;50.170;8.242;2022-11-06T12:48:05;8.47;;;7.50;;
8260;SDS011;64115;50.170;8.242;2022-11-06T12:50:43;8.63;;;7.20;;
8260;SDS011;64115;50.170;8.242;2022-11-06T12:53:23;8.87;;;7.67;;
8260;SDS011;64115;50.170;8.242;2022-11-06T12:56:01;8.93;;;7.00;;
8260;SDS011;64115;50.170;8.242;2022-11-06T12:58:48;7.87;;;7.00;;
8260;SDS011;64115;50.170;8.242;2022-11-06T13:01:24;6.60;;;6.00;;
8260;SDS011;64115;50.170;8.242;2022-11-06T13:04:06;7.63;;;6.70;;
8260;SDS011;64115;50.170;8.242;2022-11-06T13:09:46;7.07;;;6.10;;
8260;SDS011;64115;50.170;8.242;2022-11-06T13:12:23;8.33;;;6.30;;
8260;SDS011;64115;50.170;8.242;2022-11-06T13:15:02;6.83;;;6.20;;
8260;SDS011;64115;50.170;8.242;2022-11-06T13:17:38;7.83;;;5.80;;
8260;SDS011;64115;50.170;8.242;2022-11-06T13:20:12;8.43;;;6.03;;
8260;SDS011;64115;50.170;8.242;2022-11-06T13:22:48;6.63;;;5.80;;
8260;SDS011;64115;50.170;8.242;2022-11-06T13:25:21;6.33;;;5.73;;
8260;SDS011;64115;50.170;8.242;2022-11-06T13:27:56;6.70;;;6.00;;
8260;SDS011;64115;50.170;8.242;2022-11-06T13:30:27;7.53;;;6.00;;
8260;SDS011;64115;50.170;8.242;2022-11-06T13:32:58;7.73;;;6.10;;
8260;SDS011;64115;50.170;8.242;2022-11-06T13:35:31;8.17;;;6.03;;
8260;SDS011;64115;50.170;8.242;2022-11-06T13:38:00;6.90;;;6.20;;
8260;SDS011;64115;50.170;8.242;2022-11-06T13:40:31;8.27;;;5.50;;
8260;SDS011;64115;50.170;8.242;2022-11-06T13:43:03;6.20;;;5.33;;
8260;SDS011;64115;50.170;8.242;2022-11-06T13:45:38;7.20;;;6.17;;
8260;SDS011;64115;50.170;8.242;2022-11-06T13:48:17;6.67;;;5.70;;
8260;SDS011;64115;50.170;8.242;2022-11-06T13:50:57;6.83;;;5.93;;
8260;SDS011;64115;50.170;8.242;2022-11-06T13:53:36;6.13;;;5.53;;
8260;SDS011;64115;50.170;8.242;2022-11-06T13:56:20;6.97;;;5.77;;
8260;SDS011;64115;50.170;8.242;2022-11-06T14:05:43;7.23;;;6.13;;
8260;SDS011;64115;50.170;8.242;2022-11-06T14:08:15;10.33;;;5.77;;
8260;SDS011;64115;50.170;8.242;2022-11-06T14:10:49;6.20;;;5.60;;
8260;SDS011;64115;50.170;8.242;2022-11-06T14:13:23;5.60;;;5.10;;
8260;SDS011;64115;50.170;8.242;2022-11-06T14:15:59;7.60;;;5.57;;
8260;SDS011;64115;50.170;8.242;2022-11-06T14:18:31;6.53;;;5.93;;
8260;SDS011;64115;50.170;8.242;2022-11-06T14:23:52;6.70;;;5.10;;
8260;SDS011;64115;50.170;8.242;2022-11-06T14:32:40;7.03;;;5.83;;
8260;SDS011;64115;50.170;8.242;2022-11-06T14:38:29;7.80;;;5.27;;
8260;SDS011;64115;50.170;8.242;2022-11-06T14:41:00;6.23;;;5.47;;
8260;SDS011;64115;50.170;8.242;2022-11-06T14:43:49;5.57;;;5.13;;
8260;SDS011;64115;50.170;8.242;2022-11-06T14:46:19;5.57;;;5.00;;
8260;SDS011;64115;50.170;8.242;2022-11-06T14:48:49;7.27;;;5.30;;
8260;SDS011;64115;50.170;8.242;2022-11-06T14:51:24;6.10;;;5.53;;
8260;SDS011;64115;50.170;8.242;2022-11-06T14:53:52;8.27;;;5.63;;
8260;SDS011;64115;50.170;8.242;2022-11-06T14:56:22;7.03;;;5.73;;
8260;SDS011;64115;50.170;8.242;2022-11-06T14:58:52;5.87;;;5.37;;
8260;SDS011;64115;50.170;8.242;2022-11-06T15:01:23;6.37;;;5.73;;
8260;SDS011;64115;50.170;8.242;2022-11-06T15:03:54;6.30;;;5.70;;
8260;SDS011;64115;50.170;8.242;2022-11-06T15:06:39;6.60;;;5.67;;
8260;SDS011;64115;50.170;8.242;2022-11-06T15:09:10;8.43;;;5.40;;
8260;SDS011;64115;50.170;8.242;2022-11-06T15:11:51;6.03;;;5.07;;
8260;SDS011;64115;50.170;8.242;2022-11-06T15:17:22;6.33;;;5.73;;
8260;SDS011;64115;50.170;8.242;2022-11-06T15:19:52;8.20;;;6.73;;
8260;SDS011;64115;50.170;8.242;2022-11-06T15:22:27;6.30;;;5.73;;
8260;SDS011;64115;50.170;8.242;2022-11-06T15:25:00;6.47;;;5.80;;
8260;SDS011;64115;50.170;8.242;2022-11-06T15:27:37;6.87;;;6.20;;
8260;SDS011;64115;50.170;8.242;2022-11-06T15:30:12;6.10;;;5.57;;
8260;SDS011;64115;50.170;8.242;2022-11-06T15:32:42;6.77;;;6.17;;
8260;SDS011;64115;50.170;8.242;2022-11-06T15:35:12;8.30;;;6.43;;
8260;SDS011;64115;50.170;8.242;2022-11-06T15:37:42;7.03;;;6.30;;
8260;SDS011;64115;50.170;8.242;2022-11-06T15:40:20;12.20;;;6.30;;
8260;SDS011;64115;50.170;8.242;2022-11-06T15:42:49;6.40;;;5.80;;
8260;SDS011;64115;50.170;8.242;2022-11-06T15:45:21;8.30;;;6.50;;
8260;SDS011;64115;50.170;8.242;2022-11-06T15:47:54;7.95;;;7.15;;
8260;SDS011;64115;50.170;8.242;2022-11-06T15:50:22;9.67;;;6.67;;
8260;SDS011;64115;50.170;8.242;2022-11-06T15:52:50;7.27;;;6.57;;
8260;SDS011;64115;50.170;8.242;2022-11-06T15:55:24;6.87;;;6.17;;
8260;SDS011;64115;50.170;8.242;2022-11-06T15:57:52;7.03;;;6.30;;
8260;SDS011;64115;50.170;8.242;2022-11-06T16:00:23;9.10;;;6.13;;
8260;SDS011;64115;50.170;8.242;2022-11-06T16:02:51;6.37;;;5.80;;
8260;SDS011;64115;50.170;8.242;2022-11-06T16:05:25;6.77;;;6.13;;